Danali, Honduras
Current Conditions -  °F | °C
As of 3:00 AM on Friday 21 Nov 2014 (Local Time) from MHTG Reporting Station
Broken Clouds Broken Clouds  
Wind Chill: 66°   Ceiling: 2500
Heat Index: 66°   Visibility: 6mi
Dew Point: 66°   Wind: 5mph
Humidity: 100%   Direction: 360°N
Pressure: 30.09"   Gusts: NA
Location:  14.02°N, 86.3°W
Report Text: MHTG 210900Z 36004KT 9999 FEW010 BKN025 19/19 Q1019 A3009 NOSIG
Loading
Personal Weather Stations






























Interactive Weather Map New forecast layout! Learn more

10-Day Weather Forecast

Advertisements
Track Severe Weather on mobile